createdAt,value
2022-12-03T00:00:22.441Z,102753.22
2022-12-03T00:02:49.117Z,102747.03
2022-12-03T00:05:15.699Z,102750.53
2022-12-03T00:07:42.171Z,102755.94
2022-12-03T00:10:09.538Z,102742.41
2022-12-03T00:12:35.966Z,102747.84
2022-12-03T00:15:02.515Z,102743.19
2022-12-03T00:17:28.981Z,102747.06
2022-12-03T00:19:55.444Z,102749.41
2022-12-03T00:22:21.893Z,102755.97
2022-12-03T00:24:48.372Z,102755.97
2022-12-03T00:27:14.876Z,102750.97
2022-12-03T00:29:41.296Z,102754.06
2022-12-03T00:32:07.783Z,102756.38
2022-12-03T00:34:34.228Z,102758.75
2022-12-03T00:37:00.685Z,102764.16
2022-12-03T00:39:27.239Z,102768.41
2022-12-03T00:41:53.674Z,102758.72
2022-12-03T00:44:20.104Z,102754.47
2022-12-03T00:46:46.659Z,102764.16
2022-12-03T00:49:13.229Z,102764.16
2022-12-03T00:51:39.749Z,102767.66
2022-12-03T00:54:06.260Z,102756.81
2022-12-03T00:56:32.840Z,102757.59
2022-12-03T00:58:59.355Z,102762.66
2022-12-03T01:01:25.967Z,102760.69
2022-12-03T01:03:52.450Z,102771.13
2022-12-03T01:06:18.889Z,102763.41
2022-12-03T01:08:45.443Z,102761.84
2022-12-03T01:11:30.069Z,102754.50
2022-12-03T01:13:56.531Z,102762.25
2022-12-03T01:16:23.125Z,102771.13
2022-12-03T01:18:52.284Z,102760.31
2022-12-03T01:21:19.787Z,102763.03
2022-12-03T01:23:46.449Z,102770.75
2022-12-03T01:26:12.987Z,102768.44
2022-12-03T01:28:41.744Z,102770.75
2022-12-03T01:31:27.848Z,102761.09
2022-12-03T01:33:54.739Z,102764.19
2022-12-03T01:36:21.257Z,102769.97
2022-12-03T01:38:48.862Z,102761.47
2022-12-03T01:41:17.532Z,102762.63
2022-12-03T01:43:44.678Z,102763.03
2022-12-03T01:46:23.989Z,102763.41
2022-12-03T01:48:52.973Z,102759.53
2022-12-03T01:51:19.806Z,102761.47
2022-12-03T01:53:46.576Z,102771.53
2022-12-03T01:56:15.672Z,102767.69
2022-12-03T01:58:43.432Z,102771.53
2022-12-03T02:01:15.935Z,102767.28
2022-12-03T02:03:43.654Z,102766.88
2022-12-03T02:06:16.830Z,102766.13
2022-12-03T02:08:43.696Z,102770.38
2022-12-03T02:11:24.403Z,102772.28
2022-12-03T02:13:55.447Z,102776.53
2022-12-03T02:16:22.094Z,102772.28
2022-12-03T02:18:48.813Z,102770.34
2022-12-03T02:21:43.559Z,102764.56
2022-12-03T02:24:43.663Z,102764.94
2022-12-03T02:27:10.107Z,102769.59
2022-12-03T02:29:36.948Z,102767.25
2022-12-03T02:32:03.818Z,102762.22
2022-12-03T02:34:39.458Z,102760.69
2022-12-03T02:37:09.810Z,102761.88
2022-12-03T02:39:40.028Z,102759.53
2022-12-03T02:42:26.004Z,102766.47
2022-12-03T02:44:53.300Z,102763.38
2022-12-03T02:47:22.291Z,102762.22
2022-12-03T02:49:49.626Z,102762.59
2022-12-03T02:52:16.272Z,102769.19
2022-12-03T02:54:42.967Z,102767.63
2022-12-03T02:57:09.660Z,102766.47
2022-12-03T02:59:36.205Z,102770.34
2022-12-03T03:02:02.795Z,102771.50
2022-12-03T03:04:29.901Z,102762.97
2022-12-03T03:06:56.632Z,102764.53
2022-12-03T03:09:23.145Z,102759.91
2022-12-03T03:11:49.577Z,102751.00
2022-12-03T03:14:16.100Z,102752.94
2022-12-03T03:16:42.720Z,102750.63
2022-12-03T03:19:09.483Z,102751.78
2022-12-03T03:21:35.943Z,102756.03
2022-12-03T03:24:03.074Z,102760.28
2022-12-03T03:26:29.538Z,102760.28
2022-12-03T03:28:57.525Z,102756.41
2022-12-03T03:31:24.429Z,102752.50
2022-12-03T03:33:51.733Z,102752.13
2022-12-03T03:36:19.488Z,102761.03
2022-12-03T03:38:47.068Z,102757.53
2022-12-03T03:41:14.476Z,102758.28
2022-12-03T03:43:42.907Z,102757.53
2022-12-03T03:46:10.781Z,102759.84
2022-12-03T03:48:37.917Z,102755.59
2022-12-03T03:51:09.249Z,102752.50
2022-12-03T03:53:38.989Z,102752.91
2022-12-03T03:56:06.154Z,102752.09
2022-12-03T03:58:32.904Z,102747.88
2022-12-03T04:01:01.338Z,102756.00
2022-12-03T04:03:29.140Z,102749.41
2022-12-03T04:05:55.656Z,102746.31
2022-12-03T04:08:22.081Z,102748.25
2022-12-03T04:11:07.123Z,102743.22
2022-12-03T04:13:33.572Z,102747.09
2022-12-03T04:15:59.972Z,102740.91
2022-12-03T04:18:44.724Z,102742.81
2022-12-03T04:21:35.784Z,102742.03
2022-12-03T04:24:02.521Z,102729.69
2022-12-03T04:26:47.764Z,102731.22
2022-12-03T04:29:14.246Z,102733.13
2022-12-03T04:31:59.349Z,102725.03
2022-12-03T04:34:44.236Z,102727.75
2022-12-03T04:37:11.081Z,102724.63
2022-12-03T04:39:38.008Z,102728.09
2022-12-03T04:42:05.823Z,102722.69
2022-12-03T04:44:33.167Z,102724.63
2022-12-03T04:47:00.582Z,102726.56
2022-12-03T04:49:27.125Z,102727.75
2022-12-03T04:51:53.596Z,102720.00
2022-12-03T04:54:20.018Z,102716.13
2022-12-03T04:56:46.499Z,102730.03
2022-12-03T04:59:16.264Z,102726.19
2022-12-03T05:01:44.041Z,102723.09
2022-12-03T05:04:11.337Z,102714.97
2022-12-03T05:06:37.990Z,102716.09
2022-12-03T05:09:05.071Z,102711.47
2022-12-03T05:11:31.870Z,102704.53
2022-12-03T05:13:58.440Z,102704.94
2022-12-03T05:16:25.002Z,102698.75
2022-12-03T05:18:51.559Z,102702.22
2022-12-03T05:21:18.032Z,102697.22
2022-12-03T05:23:44.520Z,102708.00
2022-12-03T05:26:11.370Z,102702.97
2022-12-03T05:28:37.959Z,102699.13
2022-12-03T05:31:05.792Z,102696.78
2022-12-03T05:33:32.304Z,102693.28
2022-12-03T05:35:59.014Z,102696.78
2022-12-03T05:38:25.508Z,102692.16
2022-12-03T05:40:52.016Z,102699.84
2022-12-03T05:43:18.512Z,102707.59
2022-12-03T05:45:45.354Z,102698.34
2022-12-03T05:48:16.306Z,102698.34
2022-12-03T05:50:45.114Z,102696.00
2022-12-03T05:53:12.727Z,102690.97
2022-12-03T05:55:39.444Z,102688.31
2022-12-03T05:58:06.932Z,102678.28
2022-12-03T06:00:42.479Z,102689.09
2022-12-03T06:03:10.061Z,102694.91
2022-12-03T06:05:36.747Z,102686.84
2022-12-03T06:08:03.569Z,102687.59
2022-12-03T06:10:30.512Z,102690.69
2022-12-03T06:12:57.013Z,102686.47
2022-12-03T06:15:25.516Z,102690.34
2022-12-03T06:17:52.341Z,102685.34
2022-12-03T06:20:20.206Z,102685.72
2022-12-03T06:22:50.107Z,102686.88
2022-12-03T06:25:19.402Z,102679.91
2022-12-03T06:27:45.860Z,102678.38
2022-12-03T06:30:14.846Z,102677.94
2022-12-03T06:32:42.557Z,102679.88
2022-12-03T06:35:09.238Z,102684.84
2022-12-03T06:37:35.806Z,102681.75
2022-12-03T06:40:03.101Z,102677.84
2022-12-03T06:42:29.699Z,102675.88
2022-12-03T06:44:56.439Z,102682.03
2022-12-03T06:47:23.430Z,102684.72
2022-12-03T06:49:49.989Z,102674.63
2022-12-03T06:52:16.565Z,102690.44
2022-12-03T06:54:42.978Z,102680.75
2022-12-03T06:57:09.420Z,102677.63
2022-12-03T06:59:37.480Z,102670.63
2022-12-03T07:02:04.878Z,102670.94
2022-12-03T07:04:31.414Z,102666.28
2022-12-03T07:06:58.002Z,102674.81
2022-12-03T07:09:24.529Z,102673.22
2022-12-03T07:11:51.031Z,102666.22
2022-12-03T07:14:17.502Z,102678.19
2022-12-03T07:16:44.162Z,102678.56
2022-12-03T07:19:11.091Z,102677.78
2022-12-03T07:21:38.114Z,102670.06
2022-12-03T07:24:05.540Z,102666.16
2022-12-03T07:26:32.111Z,102675.81
2022-12-03T07:28:58.807Z,102666.50
2022-12-03T07:31:25.336Z,102672.34
2022-12-03T07:33:51.835Z,102671.56
2022-12-03T07:36:18.317Z,102675.81
2022-12-03T07:38:44.796Z,102673.09
2022-12-03T07:41:11.360Z,102667.25
2022-12-03T07:43:37.816Z,102672.69
2022-12-03T07:46:04.310Z,102677.69
2022-12-03T07:48:30.733Z,102670.34
2022-12-03T07:50:57.182Z,102668.44
2022-12-03T07:53:23.620Z,102662.19
2022-12-03T07:55:50.058Z,102658.72
2022-12-03T07:58:16.528Z,102656.38
2022-12-03T08:00:42.981Z,102652.16
2022-12-03T08:03:09.490Z,102655.97
2022-12-03T08:05:35.935Z,102651.31
2022-12-03T08:08:02.461Z,102655.97
2022-12-03T08:10:28.983Z,102655.22
2022-12-03T08:12:58.282Z,102653.28
2022-12-03T08:15:26.823Z,102662.94
2022-12-03T08:17:59.230Z,102667.97
2022-12-03T08:20:31.539Z,102655.94
2022-12-03T08:22:58.003Z,102652.84
2022-12-03T08:25:25.701Z,102652.44
2022-12-03T08:27:55.574Z,102652.44
2022-12-03T08:30:22.242Z,102652.03
2022-12-03T08:32:48.911Z,102654.75
2022-12-03T08:35:22.823Z,102649.31
2022-12-03T08:38:01.686Z,102645.44
2022-12-03T08:40:37.070Z,102646.22
2022-12-03T08:43:13.767Z,102644.66
2022-12-03T08:45:42.094Z,102641.97
2022-12-03T08:48:29.584Z,102650.88
2022-12-03T08:50:59.232Z,102655.53
2022-12-03T08:53:34.974Z,102654.34
2022-12-03T08:56:19.316Z,102649.69
2022-12-03T08:58:49.473Z,102643.88
2022-12-03T09:01:28.840Z,102639.22
2022-12-03T09:03:57.938Z,102636.50
2022-12-03T09:06:24.563Z,102645.00
2022-12-03T09:08:51.011Z,102639.94
2022-12-03T09:11:17.489Z,102634.91
2022-12-03T09:13:44.011Z,102638.75
2022-12-03T09:16:10.593Z,102640.28
2022-12-03T09:18:37.143Z,102634.47
2022-12-03T09:21:03.669Z,102647.22
2022-12-03T09:23:30.191Z,102634.44
2022-12-03T09:25:56.681Z,102634.44
2022-12-03T09:28:23.190Z,102628.56
2022-12-03T09:30:49.763Z,102627.41
2022-12-03T09:33:16.284Z,102621.59
2022-12-03T09:35:42.765Z,102626.25
2022-12-03T09:38:09.317Z,102619.66
2022-12-03T09:40:35.854Z,102619.66
2022-12-03T09:43:02.386Z,102621.59
2022-12-03T09:45:28.876Z,102623.88
2022-12-03T09:47:55.399Z,102621.56
2022-12-03T09:50:25.394Z,102617.25
2022-12-03T09:52:54.952Z,102624.59
2022-12-03T09:55:25.467Z,102627.66
2022-12-03T09:57:56.935Z,102622.22
2022-12-03T10:00:26.984Z,102624.28
2022-12-03T10:02:56.371Z,102614.56
2022-12-03T10:05:23.837Z,102625.03
2022-12-03T10:07:52.229Z,102623.09
2022-12-03T10:10:22.185Z,102616.13
2022-12-03T10:12:49.981Z,102622.34
2022-12-03T10:15:18.962Z,102616.91
2022-12-03T10:17:51.072Z,102617.66
2022-12-03T10:20:19.538Z,102622.66
2022-12-03T10:22:48.622Z,102613.78
2022-12-03T10:25:18.176Z,102613.34
2022-12-03T10:27:56.033Z,102612.59
2022-12-03T10:30:26.381Z,102610.63
2022-12-03T10:32:52.967Z,102600.63
2022-12-03T10:35:21.322Z,102597.91
2022-12-03T10:37:56.722Z,102595.56
2022-12-03T10:40:30.412Z,102593.28
2022-12-03T10:43:16.025Z,102588.59
2022-12-03T10:45:43.077Z,102591.72
2022-12-03T10:48:19.700Z,102583.94
2022-12-03T10:50:52.823Z,102574.63
2022-12-03T10:53:21.372Z,102580.84
2022-12-03T10:55:51.028Z,102571.13
2022-12-03T10:58:23.444Z,102566.16
2022-12-03T11:00:51.556Z,102563.00
2022-12-03T11:03:23.450Z,102564.16
2022-12-03T11:05:50.957Z,102565.38
2022-12-03T11:08:23.919Z,102570.38
2022-12-03T11:11:13.250Z,102565.28
2022-12-03T11:13:39.738Z,102556.31
2022-12-03T11:16:08.279Z,102559.34
2022-12-03T11:18:37.837Z,102556.97
2022-12-03T11:21:08.903Z,102562.34
2022-12-03T11:23:44.394Z,102555.34
2022-12-03T11:26:29.257Z,102558.78
2022-12-03T11:28:57.713Z,102553.72
2022-12-03T11:31:40.929Z,102551.00
2022-12-03T11:34:17.065Z,102542.81
2022-12-03T11:37:11.776Z,102548.63
2022-12-03T11:39:55.673Z,102529.97
2022-12-03T11:42:25.539Z,102531.06
2022-12-03T11:45:03.985Z,102524.88
2022-12-03T11:48:00.406Z,102516.75
2022-12-03T11:50:55.864Z,102524.13
2022-12-03T11:53:27.208Z,102523.41
2022-12-03T11:56:11.162Z,102520.69
2022-12-03T11:58:39.973Z,102523.34
2022-12-03T12:01:07.800Z,102522.91
2022-12-03T12:03:37.266Z,102519.47
2022-12-03T12:06:39.480Z,102514.03
2022-12-03T12:09:05.973Z,102507.88
2022-12-03T12:11:34.079Z,102492.91
2022-12-03T12:14:09.441Z,102494.47
2022-12-03T12:16:39.023Z,102485.63
2022-12-03T12:19:33.269Z,102484.78
2022-12-03T12:22:16.758Z,102477.81
2022-12-03T12:24:45.836Z,102474.66
2022-12-03T12:27:12.206Z,102472.72
2022-12-03T12:29:45.749Z,102474.63
2022-12-03T12:32:17.373Z,102466.09
2022-12-03T12:34:49.267Z,102466.97
2022-12-03T12:37:30.770Z,102470.81
2022-12-03T12:39:57.980Z,102465.47
2022-12-03T12:42:36.438Z,102463.50
2022-12-03T12:45:16.404Z,102459.13
2022-12-03T12:47:48.431Z,102463.69
2022-12-03T12:50:16.657Z,102463.59
2022-12-03T12:52:55.142Z,102451.84
2022-12-03T12:55:23.007Z,102457.53
2022-12-03T13:00:23.553Z,102439.47
2022-12-03T13:02:55.855Z,102438.94
2022-12-03T13:05:23.939Z,102444.25
2022-12-03T13:07:52.772Z,102443.38
2022-12-03T13:10:33.746Z,102446.38
2022-12-03T13:13:44.005Z,102449.38
2022-12-03T13:16:28.416Z,102440.69
2022-12-03T13:18:57.344Z,102438.22
2022-12-03T13:21:40.982Z,102440.47
2022-12-03T13:24:37.996Z,102442.72
2022-12-03T13:27:13.570Z,102437.56
2022-12-03T13:29:40.189Z,102436.31
2022-12-03T13:32:13.645Z,102441.66
2022-12-03T13:34:40.742Z,102441.16
2022-12-03T13:37:14.180Z,102432.94
2022-12-03T13:39:57.897Z,102428.97
2022-12-03T13:42:39.011Z,102424.63
2022-12-03T13:45:35.609Z,102430.34
2022-12-03T13:48:13.612Z,102439.22
2022-12-03T13:50:43.964Z,102437.19
2022-12-03T13:53:27.304Z,102440.25
2022-12-03T13:55:58.016Z,102441.38
2022-12-03T13:58:24.474Z,102441.69
2022-12-03T14:00:50.949Z,102432.28
2022-12-03T14:03:17.712Z,102437.28
2022-12-03T14:05:44.196Z,102432.19
2022-12-03T14:08:10.697Z,102442.25
2022-12-03T14:10:37.177Z,102440.63
2022-12-03T14:13:03.616Z,102439.00
2022-12-03T14:15:30.121Z,102433.47
2022-12-03T14:17:56.615Z,102442.03
2022-12-03T14:20:23.070Z,102434.94
2022-12-03T14:22:49.559Z,102430.25
2022-12-03T14:25:16.212Z,102427.91
2022-12-03T14:27:42.693Z,102429.41
2022-12-03T14:30:09.742Z,102429.34
2022-12-03T14:32:36.230Z,102424.59
2022-12-03T14:35:08.118Z,102427.66
2022-12-03T14:37:36.646Z,102421.34
2022-12-03T14:40:03.867Z,102425.63
2022-12-03T14:42:30.464Z,102425.16
2022-12-03T14:44:59.834Z,102425.16
2022-12-03T14:47:26.288Z,102423.22
2022-12-03T14:49:53.266Z,102420.47
2022-12-03T14:52:20.215Z,102425.94
2022-12-03T14:54:46.777Z,102413.09
2022-12-03T14:57:14.469Z,102412.31
2022-12-03T14:59:42.394Z,102415.81
2022-12-03T15:02:10.130Z,102415.03
2022-12-03T15:04:37.248Z,102420.47
2022-12-03T15:07:04.092Z,102418.63
2022-12-03T15:09:30.778Z,102410.03
2022-12-03T15:11:57.289Z,102408.91
2022-12-03T15:14:23.769Z,102407.41
2022-12-03T15:16:50.365Z,102406.63
2022-12-03T15:19:17.111Z,102400.06
2022-12-03T15:21:43.570Z,102400.84
2022-12-03T15:24:10.632Z,102407.06
2022-12-03T15:26:37.100Z,102397.78
2022-12-03T15:29:03.599Z,102394.28
2022-12-03T15:31:30.150Z,102403.22
2022-12-03T15:33:56.685Z,102392.00
2022-12-03T15:36:23.166Z,102394.72
2022-12-03T15:38:49.714Z,102395.16
2022-12-03T15:41:24.635Z,102398.63
2022-12-03T15:43:54.761Z,102405.25
2022-12-03T15:46:21.408Z,102399.03
2022-12-03T15:48:48.443Z,102399.81
2022-12-03T15:51:15.330Z,102398.28
2022-12-03T15:53:42.253Z,102402.97
2022-12-03T15:56:09.089Z,102405.69
2022-12-03T15:58:35.594Z,102401.44
2022-12-03T16:01:02.149Z,102406.44
2022-12-03T16:03:28.988Z,102402.97
2022-12-03T16:05:55.481Z,102402.97
2022-12-03T16:08:22.184Z,102399.47
2022-12-03T16:10:48.686Z,102400.22
2022-12-03T16:13:15.245Z,102397.19
2022-12-03T16:15:41.780Z,102402.19
2022-12-03T16:18:08.314Z,102400.69
2022-12-03T16:20:34.780Z,102410.38
2022-12-03T16:23:01.209Z,102406.13
2022-12-03T16:25:27.727Z,102400.22
2022-12-03T16:27:54.289Z,102400.22
2022-12-03T16:30:20.767Z,102400.22
2022-12-03T16:32:47.201Z,102401.00
2022-12-03T16:35:28.216Z,102399.03
2022-12-03T16:38:03.854Z,102401.44
2022-12-03T16:40:30.345Z,102401.09
2022-12-03T16:42:56.805Z,102397.69
2022-12-03T16:45:40.714Z,102401.69
2022-12-03T16:48:07.162Z,102399.03
2022-12-03T16:50:34.310Z,102395.63
2022-12-03T16:53:00.934Z,102403.47
2022-12-03T16:55:27.476Z,102409.72
2022-12-03T17:02:48.695Z,102410.94
2022-12-03T17:05:15.226Z,102419.13
2022-12-03T17:10:08.412Z,102415.19
2022-12-03T17:13:07.070Z,102410.50
2022-12-03T17:15:21.444Z,102401.91
2022-12-03T17:17:47.972Z,102396.06
2022-12-03T17:20:14.751Z,102401.50
2022-12-03T17:22:41.757Z,102403.78
2022-12-03T17:25:08.907Z,102405.66
2022-12-03T17:27:37.053Z,102411.13
2022-12-03T17:30:07.287Z,102404.06
2022-12-03T17:32:34.070Z,102407.53
2022-12-03T17:35:00.600Z,102404.41
2022-12-03T17:37:27.094Z,102402.03
2022-12-03T17:39:53.881Z,102394.59
2022-12-03T17:42:20.857Z,102405.06
2022-12-03T17:44:47.346Z,102408.59
2022-12-03T17:47:13.804Z,102401.50
2022-12-03T17:49:40.309Z,102406.19
2022-12-03T17:52:06.734Z,102400.00
2022-12-03T17:54:55.103Z,102402.34
2022-12-03T17:57:19.582Z,102401.69
2022-12-03T17:59:46.046Z,102404.81
2022-12-03T18:02:12.639Z,102417.75
2022-12-03T18:04:39.244Z,102418.66
2022-12-03T18:07:05.653Z,102417.22
2022-12-03T18:09:32.106Z,102411.53
2022-12-03T18:11:58.609Z,102412.09
2022-12-03T18:14:25.086Z,102411.81
2022-12-03T18:16:51.490Z,102409.22
2022-12-03T18:19:18.014Z,102398.09
2022-12-03T18:21:44.602Z,102408.25
2022-12-03T18:24:11.112Z,102407.16
2022-12-03T18:26:37.869Z,102399.00
2022-12-03T18:29:04.385Z,102397.44
2022-12-03T18:31:30.913Z,102392.78
2022-12-03T18:33:57.382Z,102397.03
2022-12-03T18:36:26.309Z,102392.69
2022-12-03T18:38:55.225Z,102393.06
2022-12-03T18:41:24.094Z,102396.50
2022-12-03T18:43:51.185Z,102401.84
2022-12-03T18:46:51.302Z,102399.50
2022-12-03T18:49:05.840Z,102402.88
2022-12-03T18:51:32.481Z,102398.56
2022-12-03T18:53:58.959Z,102404.25
2022-12-03T18:56:28.198Z,102409.63
2022-12-03T18:58:54.927Z,102412.69
2022-12-03T19:01:25.880Z,102402.47
2022-12-03T19:03:53.990Z,102412.13
2022-12-03T19:06:21.468Z,102417.47
2022-12-03T19:08:51.463Z,102420.13
2022-12-03T19:11:18.141Z,102407.63
2022-12-03T19:13:45.782Z,102421.13
2022-12-03T19:16:12.734Z,102416.38
2022-12-03T19:18:39.583Z,102414.03
2022-12-03T19:21:10.706Z,102406.19
2022-12-03T19:23:40.478Z,102412.78
2022-12-03T19:26:09.450Z,102413.84
2022-12-03T19:28:36.520Z,102415.72
2022-12-03T19:31:09.638Z,102414.13
2022-12-03T19:33:36.404Z,102416.75
2022-12-03T19:36:07.621Z,102411.63
2022-12-03T19:38:38.787Z,102411.25
2022-12-03T19:41:10.565Z,102415.03
2022-12-03T19:43:38.300Z,102415.41
2022-12-03T19:46:12.200Z,102412.25
2022-12-03T19:48:40.518Z,102419.97
2022-12-03T19:51:33.153Z,102424.28
2022-12-03T19:53:55.232Z,102424.28
2022-12-03T19:56:22.161Z,102427.31
2022-12-03T19:58:48.661Z,102431.97
2022-12-03T20:01:18.803Z,102431.56
2022-12-03T20:03:47.772Z,102430.41
2022-12-03T20:06:16.102Z,102434.63
2022-12-03T20:08:43.175Z,102435.41
2022-12-03T20:11:21.029Z,102423.31
2022-12-03T20:13:48.794Z,102431.06
2022-12-03T20:16:18.655Z,102432.25
2022-12-03T20:18:49.290Z,102433.78
2022-12-03T20:21:18.736Z,102431.06
2022-12-03T20:23:46.251Z,102422.88
2022-12-03T20:26:16.079Z,102431.41
2022-12-03T20:28:42.660Z,102425.19
2022-12-03T20:31:14.723Z,102432.16
2022-12-03T20:33:50.519Z,102432.16
2022-12-03T20:36:24.002Z,102429.00
2022-12-03T20:38:55.120Z,102423.53
2022-12-03T20:41:23.712Z,102415.38
2022-12-03T20:44:30.393Z,102418.09
2022-12-03T20:47:27.966Z,102416.13
2022-12-03T20:49:57.768Z,102414.19
2022-12-03T20:52:27.417Z,102419.63
2022-12-03T20:54:57.361Z,102412.66
2022-12-03T20:57:24.685Z,102405.25
2022-12-03T21:00:16.418Z,102407.56
2022-12-03T21:02:46.259Z,102398.63
2022-12-03T21:05:34.200Z,102399.41
2022-12-03T21:08:40.171Z,102403.66
2022-12-03T21:14:21.845Z,102397.84
2022-12-03T21:19:44.969Z,102391.22
2022-12-03T21:28:01.874Z,102399.41
2022-12-03T21:30:28.416Z,102402.13
2022-12-03T21:32:55.793Z,102403.66
2022-12-03T21:35:46.824Z,102400.47
2022-12-03T21:41:41.145Z,102396.66
2022-12-03T21:45:12.114Z,102396.66
2022-12-03T21:50:31.268Z,102412.13
2022-12-03T21:56:21.071Z,102404.38
2022-12-03T21:58:50.720Z,102395.47
2022-12-03T22:01:22.555Z,102398.94
2022-12-03T22:03:49.735Z,102401.66
2022-12-03T22:06:17.374Z,102401.66
2022-12-03T22:08:44.271Z,102396.56
2022-12-03T22:11:19.543Z,102400.47
2022-12-03T22:13:46.851Z,102396.16
2022-12-03T22:16:16.416Z,102400.06
2022-12-03T22:18:45.477Z,102394.16
2022-12-03T22:21:14.600Z,102390.72
2022-12-03T22:23:42.071Z,102389.50
2022-12-03T22:26:14.039Z,102387.63
2022-12-03T22:28:47.895Z,102396.22
2022-12-03T22:31:15.525Z,102401.00
2022-12-03T22:33:43.415Z,102397.19
2022-12-03T22:36:20.095Z,102402.38
2022-12-03T22:38:48.494Z,102398.63
2022-12-03T22:41:15.709Z,102396.44
2022-12-03T22:43:42.809Z,102401.19
2022-12-03T22:46:13.080Z,102397.88
2022-12-03T22:48:41.224Z,102396.06
2022-12-03T22:51:26.286Z,102394.69
2022-12-03T22:53:57.258Z,102398.34
2022-12-03T22:56:24.726Z,102395.78
2022-12-03T22:58:51.663Z,102400.19
2022-12-03T23:01:47.666Z,102392.63
2022-12-03T23:04:14.236Z,102398.63
2022-12-03T23:06:41.245Z,102388.22
2022-12-03T23:09:08.151Z,102398.09
2022-12-03T23:11:34.945Z,102397.03
2022-12-03T23:14:01.941Z,102386.31
2022-12-03T23:16:32.074Z,102390.28
2022-12-03T23:18:59.757Z,102385.31
2022-12-03T23:21:30.301Z,102388.22
2022-12-03T23:24:01.473Z,102385.97
2022-12-03T23:26:28.985Z,102379.06
2022-12-03T23:28:56.006Z,102381.13
2022-12-03T23:31:29.341Z,102383.16
2022-12-03T23:33:59.827Z,102382.84
2022-12-03T23:36:29.402Z,102390.75
2022-12-03T23:38:59.083Z,102385.44
2022-12-03T23:41:26.296Z,102391.34
2022-12-03T23:43:53.257Z,102385.63
2022-12-03T23:46:22.851Z,102384.13
2022-12-03T23:48:50.955Z,102388.09
2022-12-03T23:51:20.226Z,102388.19
2022-12-03T23:53:47.640Z,102383.22
2022-12-03T23:56:17.059Z,102385.25
2022-12-03T23:58:49.893Z,102382.97
